createdAt,value
2023-05-07T00:03:15.033Z,69.51
2023-05-07T00:08:08.249Z,70.97
2023-05-07T00:13:01.597Z,70.75
2023-05-07T00:17:56.141Z,70.88
2023-05-07T00:22:49.390Z,72.44
2023-05-07T00:27:42.675Z,75.26
2023-05-07T00:32:36.008Z,75.65
2023-05-07T00:37:31.170Z,74.37
2023-05-07T00:42:25.136Z,75.33
2023-05-07T00:47:19.237Z,75.79
2023-05-07T00:52:14.131Z,76.27
2023-05-07T00:57:08.916Z,77.03
2023-05-07T01:02:02.114Z,78.27
2023-05-07T01:06:56.933Z,79.14
2023-05-07T01:11:52.781Z,80.13
2023-05-07T01:16:47.508Z,80.53
2023-05-07T01:21:46.030Z,80.66
2023-05-07T01:26:41.959Z,79.90
2023-05-07T01:31:37.001Z,79.99
2023-05-07T01:36:31.425Z,80.42
2023-05-07T01:41:24.716Z,79.76
2023-05-07T01:46:20.389Z,79.38
2023-05-07T01:51:13.976Z,79.15
2023-05-07T01:56:07.877Z,78.99
2023-05-07T02:01:03.549Z,78.36
2023-05-07T02:05:58.559Z,77.37
2023-05-07T02:10:59.668Z,76.21
2023-05-07T02:15:52.936Z,75.69
2023-05-07T02:20:46.315Z,76.08
2023-05-07T02:25:41.149Z,76.02
2023-05-07T02:30:34.311Z,76.36
2023-05-07T02:35:27.691Z,76.56
2023-05-07T02:40:21.539Z,77.59
2023-05-07T02:45:16.762Z,78.75
2023-05-07T02:50:12.207Z,78.32
2023-05-07T02:55:07.197Z,80.13
2023-05-07T03:00:01.148Z,81.14
2023-05-07T03:04:59.060Z,83.33
2023-05-07T03:09:52.333Z,83.85
2023-05-07T03:14:45.713Z,83.98
2023-05-07T03:19:39.015Z,84.79
2023-05-07T03:24:33.706Z,84.84
2023-05-07T03:29:27.002Z,84.67
2023-05-07T03:34:23.160Z,84.37
2023-05-07T03:39:16.748Z,81.80
2023-05-07T03:44:11.454Z,79.97
2023-05-07T03:49:05.403Z,81.22
2023-05-07T03:53:58.796Z,82.99
2023-05-07T03:58:54.456Z,85.18
2023-05-07T04:03:49.392Z,87.12
2023-05-07T04:08:43.388Z,87.16
2023-05-07T04:13:36.669Z,86.45
2023-05-07T04:18:32.846Z,85.34
2023-05-07T04:23:28.019Z,84.29
2023-05-07T04:28:22.850Z,83.82
2023-05-07T04:33:17.948Z,83.07
2023-05-07T04:38:12.094Z,83.88
2023-05-07T04:43:08.529Z,83.78
2023-05-07T04:48:08.012Z,82.15
2023-05-07T04:53:01.606Z,79.84
2023-05-07T04:57:55.594Z,78.32
2023-05-07T05:02:51.634Z,75.58
2023-05-07T05:07:47.724Z,74.74
2023-05-07T05:12:41.317Z,74.17
2023-05-07T05:17:35.794Z,73.39
2023-05-07T05:22:32.571Z,70.16
2023-05-07T05:27:26.986Z,69.57
2023-05-07T05:32:21.127Z,69.82
2023-05-07T05:37:14.886Z,70.13
2023-05-07T05:42:09.778Z,68.90
2023-05-07T05:47:03.503Z,68.78
2023-05-07T05:51:57.333Z,65.88
2023-05-07T05:56:52.389Z,64.16
2023-05-07T06:01:47.331Z,64.11
2023-05-07T06:06:40.771Z,63.22
2023-05-07T06:11:34.667Z,61.75
2023-05-07T06:16:28.328Z,59.59
2023-05-07T06:21:23.017Z,61.10
2023-05-07T06:26:16.223Z,57.70
2023-05-07T06:31:14.394Z,59.49
2023-05-07T06:36:09.385Z,55.33
2023-05-07T06:41:04.956Z,54.74
2023-05-07T06:45:58.329Z,55.29
2023-05-07T06:50:52.206Z,52.89
2023-05-07T06:55:45.768Z,52.17
2023-05-07T07:00:41.848Z,51.28
2023-05-07T07:05:35.526Z,49.41
2023-05-07T07:10:30.448Z,52.05
2023-05-07T07:15:26.001Z,48.00
2023-05-07T07:20:22.285Z,46.83
2023-05-07T07:25:15.589Z,48.38
2023-05-07T07:30:10.683Z,47.79
2023-05-07T07:35:07.678Z,48.06
2023-05-07T07:40:04.547Z,47.59
2023-05-07T07:44:58.815Z,49.25
2023-05-07T07:49:55.970Z,47.54
2023-05-07T07:54:49.551Z,46.34
2023-05-07T07:59:44.562Z,43.02
2023-05-07T08:04:40.018Z,42.42
2023-05-07T08:09:35.013Z,45.43
2023-05-07T08:14:30.052Z,43.25
2023-05-07T08:19:25.081Z,43.41
2023-05-07T08:24:18.680Z,41.03
2023-05-07T08:29:13.774Z,37.94
2023-05-07T08:34:09.538Z,38.21
2023-05-07T08:39:07.533Z,37.10
2023-05-07T08:44:04.723Z,33.26
2023-05-07T08:48:58.005Z,34.70
2023-05-07T08:53:52.042Z,31.69
2023-05-07T08:58:57.594Z,30.99
2023-05-07T09:03:54.044Z,30.64
2023-05-07T09:08:52.976Z,29.08
2023-05-07T09:13:46.697Z,31.45
2023-05-07T09:18:44.639Z,30.83
2023-05-07T09:23:39.747Z,29.07
2023-05-07T09:28:34.191Z,31.27
2023-05-07T09:33:29.801Z,31.73
2023-05-07T09:38:25.913Z,31.60
2023-05-07T09:43:23.854Z,28.59
2023-05-07T09:48:23.324Z,30.97
2023-05-07T09:53:21.311Z,30.85
2023-05-07T09:58:18.584Z,29.46
2023-05-07T10:03:14.060Z,31.16
2023-05-07T10:08:17.983Z,31.21
2023-05-07T10:13:14.428Z,32.88
2023-05-07T10:18:16.576Z,31.33
2023-05-07T10:23:17.004Z,29.92
2023-05-07T10:28:14.736Z,29.97
2023-05-07T10:33:16.112Z,29.06
2023-05-07T10:38:11.489Z,28.31
2023-05-07T10:43:10.567Z,27.57
2023-05-07T10:48:28.009Z,29.37
2023-05-07T10:53:29.494Z,26.44
2023-05-07T10:58:34.248Z,26.72
2023-05-07T11:04:16.358Z,24.33
2023-05-07T11:09:23.745Z,25.89
2023-05-07T11:14:46.004Z,25.39
2023-05-07T11:19:53.579Z,24.17
2023-05-07T11:25:12.882Z,23.80
2023-05-07T11:30:07.206Z,22.72
2023-05-07T11:35:02.144Z,22.98
2023-05-07T11:40:06.595Z,23.20
2023-05-07T11:45:01.087Z,21.57
2023-05-07T11:49:57.516Z,22.94
2023-05-07T11:54:56.949Z,22.31
2023-05-07T11:59:50.267Z,22.54
2023-05-07T12:04:44.721Z,24.62
2023-05-07T12:09:37.835Z,26.23
2023-05-07T12:14:31.312Z,27.52
2023-05-07T12:19:25.034Z,24.65
2023-05-07T12:24:21.946Z,22.63
2023-05-07T12:29:15.316Z,24.98
2023-05-07T12:34:08.456Z,22.00
2023-05-07T12:39:01.955Z,20.59
2023-05-07T12:43:58.917Z,20.83
2023-05-07T12:48:52.073Z,19.83
2023-05-07T12:53:45.263Z,19.99
2023-05-07T12:58:38.729Z,21.60
2023-05-07T13:03:36.190Z,20.59
2023-05-07T13:08:31.161Z,20.00
2023-05-07T13:13:24.265Z,20.31
2023-05-07T13:18:17.568Z,20.53
2023-05-07T13:23:12.100Z,19.31
2023-05-07T13:28:10.678Z,20.29
2023-05-07T13:33:04.907Z,19.61
2023-05-07T13:37:58.035Z,20.87
2023-05-07T13:42:52.930Z,21.64
2023-05-07T13:47:54.149Z,19.76
2023-05-07T13:52:51.604Z,19.87
2023-05-07T13:57:44.705Z,20.84
2023-05-07T14:02:37.947Z,21.77
2023-05-07T14:07:32.449Z,21.95
2023-05-07T14:12:25.816Z,22.45
2023-05-07T14:17:19.092Z,22.46
2023-05-07T14:22:12.230Z,23.25
2023-05-07T14:27:07.046Z,23.30
2023-05-07T14:32:00.136Z,23.34
2023-05-07T14:36:53.321Z,23.87
2023-05-07T14:41:46.328Z,24.25
2023-05-07T14:46:40.896Z,26.11
2023-05-07T14:51:35.203Z,29.10
2023-05-07T14:56:28.522Z,29.00
2023-05-07T15:01:22.959Z,28.93
2023-05-07T15:06:17.798Z,29.65
2023-05-07T15:11:12.906Z,30.41
2023-05-07T15:16:06.337Z,33.57
2023-05-07T15:20:59.866Z,31.00
2023-05-07T15:25:54.641Z,32.38
2023-05-07T15:30:47.787Z,32.65
2023-05-07T15:35:40.906Z,32.17
2023-05-07T15:40:36.300Z,31.57
2023-05-07T15:45:31.376Z,31.94
2023-05-07T15:50:24.650Z,32.01
2023-05-07T15:55:18.291Z,32.86
2023-05-07T16:00:12.869Z,32.15
2023-05-07T16:05:11.092Z,32.66
2023-05-07T16:10:04.491Z,34.07
2023-05-07T16:14:57.605Z,33.65
2023-05-07T16:19:51.966Z,34.19
2023-05-07T16:24:46.462Z,34.49
2023-05-07T16:29:40.107Z,35.08
2023-05-07T16:34:33.212Z,34.66
2023-05-07T16:39:26.283Z,35.42
2023-05-07T16:44:20.692Z,36.86
2023-05-07T16:49:13.842Z,35.93
2023-05-07T16:54:07.162Z,35.79
2023-05-07T16:59:03.333Z,35.86
2023-05-07T17:03:57.830Z,36.71
2023-05-07T17:08:51.595Z,36.55
2023-05-07T17:13:44.652Z,36.67
2023-05-07T17:18:37.797Z,37.22
2023-05-07T17:23:32.318Z,37.37
2023-05-07T17:28:25.453Z,37.47
2023-05-07T17:33:21.544Z,38.84
2023-05-07T17:38:15.172Z,39.59
2023-05-07T17:43:09.586Z,40.20
2023-05-07T17:48:03.466Z,40.69
2023-05-07T17:52:56.576Z,41.06
2023-05-07T17:57:49.635Z,41.19
2023-05-07T18:02:44.340Z,41.18
2023-05-07T18:07:37.564Z,41.41
2023-05-07T18:12:30.633Z,41.64
2023-05-07T18:17:24.320Z,42.57
2023-05-07T18:22:18.921Z,42.35
2023-05-07T18:27:13.641Z,42.63
2023-05-07T18:32:07.042Z,42.60
2023-05-07T18:37:00.134Z,42.74
2023-05-07T18:41:54.543Z,42.81
2023-05-07T18:46:48.852Z,43.23
2023-05-07T18:51:41.982Z,43.51
2023-05-07T18:56:35.121Z,43.63
2023-05-07T19:01:29.758Z,43.89
2023-05-07T19:06:22.964Z,44.53
2023-05-07T19:11:16.597Z,44.72
2023-05-07T19:16:13.532Z,44.10
2023-05-07T19:21:08.882Z,44.19
2023-05-07T19:26:04.033Z,44.12
2023-05-07T19:30:57.176Z,44.26
2023-05-07T19:35:50.218Z,44.31
2023-05-07T19:40:44.664Z,44.16
2023-05-07T19:45:37.985Z,44.03
2023-05-07T19:50:31.132Z,43.63
2023-05-07T19:55:24.488Z,43.66
2023-05-07T20:00:21.287Z,43.45
2023-05-07T20:05:14.456Z,43.54
2023-05-07T20:10:08.498Z,44.01
2023-05-07T20:15:01.878Z,44.20
2023-05-07T20:19:56.991Z,43.39
2023-05-07T20:24:50.144Z,43.32
2023-05-07T20:29:43.241Z,43.57
2023-05-07T20:34:36.375Z,44.33
2023-05-07T20:39:30.792Z,44.16
2023-05-07T20:44:23.771Z,44.25
2023-05-07T20:49:16.830Z,45.66
2023-05-07T20:54:11.081Z,45.51
2023-05-07T20:59:05.545Z,46.40
2023-05-07T21:03:58.637Z,47.01
2023-05-07T21:08:51.730Z,48.61
2023-05-07T21:13:44.836Z,47.97
2023-05-07T21:18:39.409Z,48.67
2023-05-07T21:23:32.518Z,50.70
2023-05-07T21:28:25.635Z,51.23
2023-05-07T21:33:18.753Z,50.36
2023-05-07T21:38:13.285Z,50.38
2023-05-07T21:43:06.432Z,50.80
2023-05-07T21:47:59.629Z,50.84
2023-05-07T21:52:52.825Z,50.59
2023-05-07T21:58:01.259Z,51.00
2023-05-07T22:02:58.535Z,50.35
2023-05-07T22:07:51.799Z,50.46
2023-05-07T22:12:44.852Z,51.64
2023-05-07T22:17:39.503Z,51.22
2023-05-07T22:22:32.577Z,52.94
2023-05-07T22:27:25.692Z,53.26
2023-05-07T22:32:18.973Z,52.74
2023-05-07T22:37:13.476Z,51.78
2023-05-07T22:42:07.567Z,50.67
2023-05-07T22:47:00.680Z,50.69
2023-05-07T22:51:53.830Z,50.13
2023-05-07T22:56:48.321Z,49.36
2023-05-07T23:01:41.732Z,49.68
2023-05-07T23:06:34.835Z,50.04
2023-05-07T23:11:27.919Z,49.57
2023-05-07T23:16:22.445Z,49.06
2023-05-07T23:21:15.534Z,48.94
2023-05-07T23:26:08.596Z,49.48
2023-05-07T23:31:01.858Z,49.11
2023-05-07T23:36:01.567Z,48.79
2023-05-07T23:40:54.913Z,49.17
2023-05-07T23:45:47.996Z,48.62
2023-05-07T23:50:41.015Z,48.44
2023-05-07T23:55:35.508Z,48.50
